sensor_id;sensor_type;location;lat;lon;timestamp;pressure;altitude;pressure_sealevel;temperature;humidity
51829;BME280;37881;48.024;8.774;2023-05-25T00:00:59;94103.72;;;9.54;98.83
51829;BME280;37881;48.024;8.774;2023-05-25T00:03:29;94097.06;;;9.55;96.93
51829;BME280;37881;48.024;8.774;2023-05-25T00:05:58;94104.09;;;9.60;96.52
51829;BME280;37881;48.024;8.774;2023-05-25T00:08:28;94106.81;;;9.60;95.83
51829;BME280;37881;48.024;8.774;2023-05-25T00:10:55;94099.72;;;9.66;94.96
51829;BME280;37881;48.024;8.774;2023-05-25T00:13:21;94107.59;;;9.60;94.57
51829;BME280;37881;48.024;8.774;2023-05-25T00:15:49;94093.78;;;9.71;94.50
51829;BME280;37881;48.024;8.774;2023-05-25T00:18:16;94091.06;;;9.68;94.57
51829;BME280;37881;48.024;8.774;2023-05-25T00:20:43;94089.16;;;9.65;92.65
51829;BME280;37881;48.024;8.774;2023-05-25T00:23:11;94097.41;;;9.61;91.90
51829;BME280;37881;48.024;8.774;2023-05-25T00:25:38;94094.19;;;9.70;92.39
51829;BME280;37881;48.024;8.774;2023-05-25T00:28:04;94092.97;;;9.78;91.20
51829;BME280;37881;48.024;8.774;2023-05-25T00:30:31;94087.69;;;9.53;92.35
51829;BME280;37881;48.024;8.774;2023-05-25T00:32:58;94079.66;;;9.76;91.46
51829;BME280;37881;48.024;8.774;2023-05-25T00:35:27;94085.16;;;9.76;91.28
51829;BME280;37881;48.024;8.774;2023-05-25T00:37:54;94084.03;;;9.70;90.48
51829;BME280;37881;48.024;8.774;2023-05-25T00:40:21;94082.03;;;9.74;90.04
51829;BME280;37881;48.024;8.774;2023-05-25T00:42:47;94082.47;;;9.66;89.45
51829;BME280;37881;48.024;8.774;2023-05-25T00:45:14;94077.25;;;9.82;88.97
51829;BME280;37881;48.024;8.774;2023-05-25T00:47:42;94080.09;;;9.71;90.11
51829;BME280;37881;48.024;8.774;2023-05-25T00:50:13;94075.47;;;9.65;89.15
51829;BME280;37881;48.024;8.774;2023-05-25T00:52:40;94076.72;;;9.56;88.22
51829;BME280;37881;48.024;8.774;2023-05-25T00:55:07;94075.84;;;9.63;88.27
51829;BME280;37881;48.024;8.774;2023-05-25T00:57:39;94073.22;;;9.52;87.76
51829;BME280;37881;48.024;8.774;2023-05-25T01:00:07;94075.22;;;9.48;87.63
51829;BME280;37881;48.024;8.774;2023-05-25T01:02:38;94074.44;;;9.48;87.00
51829;BME280;37881;48.024;8.774;2023-05-25T01:05:07;94087.47;;;9.33;86.46
51829;BME280;37881;48.024;8.774;2023-05-25T01:07:37;94090.16;;;9.40;86.44
51829;BME280;37881;48.024;8.774;2023-05-25T01:10:05;94081.19;;;9.36;87.04
51829;BME280;37881;48.024;8.774;2023-05-25T01:12:43;94076.38;;;9.47;86.72
51829;BME280;37881;48.024;8.774;2023-05-25T01:15:11;94076.38;;;9.47;86.88
51829;BME280;37881;48.024;8.774;2023-05-25T01:17:38;94071.72;;;9.44;86.99
51829;BME280;37881;48.024;8.774;2023-05-25T01:20:05;94071.34;;;9.46;86.82
51829;BME280;37881;48.024;8.774;2023-05-25T01:22:44;94077.56;;;9.50;87.30
51829;BME280;37881;48.024;8.774;2023-05-25T01:25:22;94067.88;;;9.38;87.77
51829;BME280;37881;48.024;8.774;2023-05-25T01:27:55;94072.94;;;9.39;87.48
51829;BME280;37881;48.024;8.774;2023-05-25T01:30:25;94065.06;;;9.45;87.54
51829;BME280;37881;48.024;8.774;2023-05-25T01:32:53;94067.41;;;9.47;88.02
51829;BME280;37881;48.024;8.774;2023-05-25T01:35:21;94065.81;;;9.49;88.33
51829;BME280;37881;48.024;8.774;2023-05-25T01:37:50;94061.94;;;9.43;88.12
51829;BME280;37881;48.024;8.774;2023-05-25T01:40:17;94063.06;;;9.49;88.71
51829;BME280;37881;48.024;8.774;2023-05-25T01:42:44;94067.91;;;9.34;88.78
51829;BME280;37881;48.024;8.774;2023-05-25T01:45:12;94071.38;;;9.38;90.38
51829;BME280;37881;48.024;8.774;2023-05-25T01:47:43;94063.13;;;9.42;94.29
51829;BME280;37881;48.024;8.774;2023-05-25T01:50:23;94068.28;;;9.33;92.82
51829;BME280;37881;48.024;8.774;2023-05-25T01:53:00;94068.75;;;9.28;93.03
51829;BME280;37881;48.024;8.774;2023-05-25T01:55:29;94053.00;;;9.35;90.97
51829;BME280;37881;48.024;8.774;2023-05-25T01:57:58;94071.84;;;9.30;90.45
51829;BME280;37881;48.024;8.774;2023-05-25T02:00:28;94070.94;;;9.44;89.80
51829;BME280;37881;48.024;8.774;2023-05-25T02:02:59;94066.78;;;9.28;87.74
51829;BME280;37881;48.024;8.774;2023-05-25T02:05:27;94069.81;;;9.37;88.69
51829;BME280;37881;48.024;8.774;2023-05-25T02:07:54;94076.38;;;9.47;87.92
51829;BME280;37881;48.024;8.774;2023-05-25T02:10:20;94068.91;;;9.51;88.94
51829;BME280;37881;48.024;8.774;2023-05-25T02:12:47;94072.50;;;9.45;88.62
51829;BME280;37881;48.024;8.774;2023-05-25T02:15:14;94070.47;;;9.52;88.79
51829;BME280;37881;48.024;8.774;2023-05-25T02:17:41;94064.59;;;9.54;89.25
51829;BME280;37881;48.024;8.774;2023-05-25T02:20:10;94053.19;;;9.59;89.40
51829;BME280;37881;48.024;8.774;2023-05-25T02:22:37;94058.03;;;9.44;89.27
51829;BME280;37881;48.024;8.774;2023-05-25T02:25:04;94057.22;;;9.47;90.64
51829;BME280;37881;48.024;8.774;2023-05-25T02:27:31;94056.44;;;9.47;89.60
51829;BME280;37881;48.024;8.774;2023-05-25T02:29:57;94056.44;;;9.47;90.63
51829;BME280;37881;48.024;8.774;2023-05-25T02:32:24;94051.00;;;9.43;90.56
51829;BME280;37881;48.024;8.774;2023-05-25T02:34:51;94062.94;;;9.15;91.35
51829;BME280;37881;48.024;8.774;2023-05-25T02:37:17;94057.81;;;9.24;90.92
51829;BME280;37881;48.024;8.774;2023-05-25T02:39:44;94051.84;;;9.36;91.35
51829;BME280;37881;48.024;8.774;2023-05-25T02:42:11;94054.63;;;9.29;91.63
51829;BME280;37881;48.024;8.774;2023-05-25T02:44:37;94049.47;;;9.38;91.50
51829;BME280;37881;48.024;8.774;2023-05-25T02:47:04;94053.81;;;9.36;91.11
51829;BME280;37881;48.024;8.774;2023-05-25T02:49:32;94049.47;;;9.38;92.04
51829;BME280;37881;48.024;8.774;2023-05-25T02:51:59;94051.44;;;9.38;92.47
51829;BME280;37881;48.024;8.774;2023-05-25T02:54:26;94055.44;;;9.26;92.31
51829;BME280;37881;48.024;8.774;2023-05-25T02:56:53;94058.94;;;9.27;92.66
51829;BME280;37881;48.024;8.774;2023-05-25T02:59:19;94060.44;;;9.35;93.35
51829;BME280;37881;48.024;8.774;2023-05-25T03:01:47;94060.84;;;9.33;93.13
51829;BME280;37881;48.024;8.774;2023-05-25T03:04:13;94062.50;;;9.24;95.42
51829;BME280;37881;48.024;8.774;2023-05-25T03:06:40;94062.09;;;9.25;95.05
51829;BME280;37881;48.024;8.774;2023-05-25T03:09:07;94061.34;;;9.21;96.53
51829;BME280;37881;48.024;8.774;2023-05-25T03:11:35;94051.94;;;9.26;96.67
51829;BME280;37881;48.024;8.774;2023-05-25T03:14:01;94064.06;;;9.21;97.90
51829;BME280;37881;48.024;8.774;2023-05-25T03:16:28;94069.56;;;9.21;98.86
51829;BME280;37881;48.024;8.774;2023-05-25T03:18:55;94065.25;;;9.24;99.15
51829;BME280;37881;48.024;8.774;2023-05-25T03:21:22;94068.03;;;9.16;100.00
51829;BME280;37881;48.024;8.774;2023-05-25T03:23:49;94065.41;;;9.02;100.00
51829;BME280;37881;48.024;8.774;2023-05-25T03:26:15;94064.19;;;9.03;100.00
51829;BME280;37881;48.024;8.774;2023-05-25T03:28:43;94071.56;;;9.13;100.00
51829;BME280;37881;48.024;8.774;2023-05-25T03:31:09;94067.00;;;8.96;100.00
51829;BME280;37881;48.024;8.774;2023-05-25T03:33:37;94050.50;;;9.03;100.00
51829;BME280;37881;48.024;8.774;2023-05-25T03:36:08;94063.06;;;9.00;100.00
51829;BME280;37881;48.024;8.774;2023-05-25T03:38:38;94058.78;;;8.99;100.00
51829;BME280;37881;48.024;8.774;2023-05-25T03:41:04;94072.47;;;8.96;100.00
51829;BME280;37881;48.024;8.774;2023-05-25T03:43:31;94073.66;;;8.91;100.00
51829;BME280;37881;48.024;8.774;2023-05-25T03:45:58;94057.59;;;8.97;100.00
51829;BME280;37881;48.024;8.774;2023-05-25T03:48:25;94063.81;;;9.01;100.00
51829;BME280;37881;48.024;8.774;2023-05-25T03:50:52;94064.16;;;9.10;100.00
51829;BME280;37881;48.024;8.774;2023-05-25T03:53:19;94060.72;;;8.99;100.00
51829;BME280;37881;48.024;8.774;2023-05-25T03:55:46;94075.63;;;8.94;100.00
51829;BME280;37881;48.024;8.774;2023-05-25T03:58:13;94073.22;;;9.04;100.00
51829;BME280;37881;48.024;8.774;2023-05-25T04:00:41;94070.47;;;9.04;100.00
51829;BME280;37881;48.024;8.774;2023-05-25T04:03:08;94066.28;;;8.88;100.00
51829;BME280;37881;48.024;8.774;2023-05-25T04:05:36;94054.47;;;8.98;100.00
51829;BME280;37881;48.024;8.774;2023-05-25T04:08:04;94070.88;;;9.02;100.00
51829;BME280;37881;48.024;8.774;2023-05-25T04:10:32;94076.66;;;9.11;100.00
51829;BME280;37881;48.024;8.774;2023-05-25T04:12:59;94081.72;;;9.16;100.00
51829;BME280;37881;48.024;8.774;2023-05-25T04:15:27;94082.50;;;9.17;100.00
51829;BME280;37881;48.024;8.774;2023-05-25T04:17:54;94088.69;;;9.28;100.00
51829;BME280;37881;48.024;8.774;2023-05-25T04:20:20;94099.66;;;9.25;100.00
51829;BME280;37881;48.024;8.774;2023-05-25T04:22:47;94104.66;;;9.37;100.00
51829;BME280;37881;48.024;8.774;2023-05-25T04:25:15;94098.75;;;9.42;100.00
51829;BME280;37881;48.024;8.774;2023-05-25T04:27:42;94099.78;;;9.59;100.00
51829;BME280;37881;48.024;8.774;2023-05-25T04:30:12;94089.25;;;9.54;100.00
51829;BME280;37881;48.024;8.774;2023-05-25T04:32:39;94092.03;;;9.50;100.00
51829;BME280;37881;48.024;8.774;2023-05-25T04:35:07;94092.00;;;9.54;100.00
51829;BME280;37881;48.024;8.774;2023-05-25T04:37:33;94103.72;;;9.58;100.00
51829;BME280;37881;48.024;8.774;2023-05-25T04:40:02;94086.44;;;9.61;100.00
51829;BME280;37881;48.024;8.774;2023-05-25T04:42:34;94097.75;;;9.67;100.00
51829;BME280;37881;48.024;8.774;2023-05-25T04:45:00;94099.06;;;9.51;100.00
51829;BME280;37881;48.024;8.774;2023-05-25T04:47:27;94097.25;;;8.71;100.00
51829;BME280;37881;48.024;8.774;2023-05-25T04:49:54;94103.59;;;8.50;100.00
51829;BME280;37881;48.024;8.774;2023-05-25T04:52:21;94102.94;;;9.02;100.00
51829;BME280;37881;48.024;8.774;2023-05-25T04:54:48;94110.38;;;8.09;100.00
51829;BME280;37881;48.024;8.774;2023-05-25T04:57:14;94104.31;;;8.65;100.00
51829;BME280;37881;48.024;8.774;2023-05-25T04:59:41;94099.19;;;8.77;100.00
51829;BME280;37881;48.024;8.774;2023-05-25T05:02:08;94117.22;;;8.68;100.00
51829;BME280;37881;48.024;8.774;2023-05-25T05:04:35;94119.69;;;9.14;100.00
51829;BME280;37881;48.024;8.774;2023-05-25T05:07:02;94111.28;;;9.39;100.00
51829;BME280;37881;48.024;8.774;2023-05-25T05:09:29;94113.22;;;9.43;100.00
51829;BME280;37881;48.024;8.774;2023-05-25T05:11:56;94123.09;;;8.59;100.00
51829;BME280;37881;48.024;8.774;2023-05-25T05:14:23;94113.09;;;9.05;100.00
51829;BME280;37881;48.024;8.774;2023-05-25T05:16:49;94113.00;;;8.34;100.00
51829;BME280;37881;48.024;8.774;2023-05-25T05:19:17;94112.69;;;8.18;100.00
51829;BME280;37881;48.024;8.774;2023-05-25T05:21:43;94107.69;;;8.94;100.00
51829;BME280;37881;48.024;8.774;2023-05-25T05:24:10;94118.47;;;9.19;100.00
51829;BME280;37881;48.024;8.774;2023-05-25T05:26:40;94119.00;;;9.97;100.00
51829;BME280;37881;48.024;8.774;2023-05-25T05:29:24;94116.34;;;11.24;100.00
51829;BME280;37881;48.024;8.774;2023-05-25T05:31:53;94108.56;;;14.61;85.38
51829;BME280;37881;48.024;8.774;2023-05-25T05:34:20;94099.22;;;15.51;75.47
51829;BME280;37881;48.024;8.774;2023-05-25T05:36:47;94109.13;;;13.93;84.71
51829;BME280;37881;48.024;8.774;2023-05-25T05:39:23;94112.31;;;13.43;86.15
51829;BME280;37881;48.024;8.774;2023-05-25T05:41:50;94117.41;;;13.93;85.58
51829;BME280;37881;48.024;8.774;2023-05-25T05:44:19;94110.06;;;16.54;73.92
51829;BME280;37881;48.024;8.774;2023-05-25T05:46:46;94106.03;;;18.33;66.62
51829;BME280;37881;48.024;8.774;2023-05-25T05:49:13;94102.31;;;19.01;63.42
51829;BME280;37881;48.024;8.774;2023-05-25T05:51:40;94080.03;;;20.05;59.85
51829;BME280;37881;48.024;8.774;2023-05-25T05:54:07;94090.59;;;21.32;54.90
51829;BME280;37881;48.024;8.774;2023-05-25T05:56:33;94088.31;;;21.31;52.70
51829;BME280;37881;48.024;8.774;2023-05-25T05:59:00;94088.28;;;21.61;52.04
51829;BME280;37881;48.024;8.774;2023-05-25T06:01:27;94088.34;;;22.52;49.66
51829;BME280;37881;48.024;8.774;2023-05-25T06:03:54;94090.09;;;20.74;52.17
51829;BME280;37881;48.024;8.774;2023-05-25T06:06:21;94103.44;;;19.04;56.51
51829;BME280;37881;48.024;8.774;2023-05-25T06:08:48;94090.78;;;22.65;49.67
51829;BME280;37881;48.024;8.774;2023-05-25T06:11:15;94096.50;;;21.49;51.00
51829;BME280;37881;48.024;8.774;2023-05-25T06:13:41;94098.25;;;20.06;54.37
51829;BME280;37881;48.024;8.774;2023-05-25T06:16:10;94106.31;;;17.67;63.53
51829;BME280;37881;48.024;8.774;2023-05-25T06:18:38;94107.06;;;17.27;71.54
51829;BME280;37881;48.024;8.774;2023-05-25T06:21:05;94110.97;;;17.39;69.85
51829;BME280;37881;48.024;8.774;2023-05-25T06:23:31;94121.91;;;15.33;80.41
51829;BME280;37881;48.024;8.774;2023-05-25T06:26:05;94121.34;;;15.38;84.18
51829;BME280;37881;48.024;8.774;2023-05-25T06:28:32;94130.97;;;14.33;89.67
51829;BME280;37881;48.024;8.774;2023-05-25T06:30:59;94130.84;;;13.75;93.94
51829;BME280;37881;48.024;8.774;2023-05-25T06:33:25;94125.19;;;14.28;97.73
51829;BME280;37881;48.024;8.774;2023-05-25T06:35:52;94126.22;;;14.80;94.14
51829;BME280;37881;48.024;8.774;2023-05-25T06:38:23;94115.91;;;15.09;92.21
51829;BME280;37881;48.024;8.774;2023-05-25T06:40:50;94122.50;;;14.41;96.52
51829;BME280;37881;48.024;8.774;2023-05-25T06:43:17;94138.84;;;14.93;94.02
51829;BME280;37881;48.024;8.774;2023-05-25T06:45:44;94119.31;;;14.42;96.13
51829;BME280;37881;48.024;8.774;2023-05-25T06:48:11;94141.25;;;14.16;99.73
51829;BME280;37881;48.024;8.774;2023-05-25T06:50:38;94133.41;;;13.49;100.00
51829;BME280;37881;48.024;8.774;2023-05-25T06:53:05;94136.53;;;14.17;100.00
51829;BME280;37881;48.024;8.774;2023-05-25T06:55:32;94142.03;;;13.15;100.00
51829;BME280;37881;48.024;8.774;2023-05-25T06:57:58;94139.81;;;13.79;100.00
51829;BME280;37881;48.024;8.774;2023-05-25T07:00:25;94139.97;;;13.39;100.00
51829;BME280;37881;48.024;8.774;2023-05-25T07:02:52;94129.75;;;13.72;100.00
51829;BME280;37881;48.024;8.774;2023-05-25T07:05:19;94155.75;;;13.18;100.00
51829;BME280;37881;48.024;8.774;2023-05-25T07:07:46;94143.47;;;13.92;100.00
51829;BME280;37881;48.024;8.774;2023-05-25T07:10:13;94153.47;;;13.13;100.00
51829;BME280;37881;48.024;8.774;2023-05-25T07:12:39;94147.72;;;12.68;100.00
51829;BME280;37881;48.024;8.774;2023-05-25T07:15:06;94148.03;;;13.10;100.00
51829;BME280;37881;48.024;8.774;2023-05-25T07:17:33;94154.34;;;13.10;100.00
51829;BME280;37881;48.024;8.774;2023-05-25T07:20:02;94160.22;;;12.72;100.00
51829;BME280;37881;48.024;8.774;2023-05-25T07:22:30;94152.06;;;13.05;100.00
51829;BME280;37881;48.024;8.774;2023-05-25T07:24:57;94165.56;;;12.99;100.00
51829;BME280;37881;48.024;8.774;2023-05-25T07:27:23;94157.81;;;13.51;100.00
51829;BME280;37881;48.024;8.774;2023-05-25T07:29:51;94166.38;;;14.06;100.00
51829;BME280;37881;48.024;8.774;2023-05-25T07:32:17;94166.75;;;12.38;100.00
51829;BME280;37881;48.024;8.774;2023-05-25T07:34:44;94174.34;;;12.74;100.00
51829;BME280;37881;48.024;8.774;2023-05-25T07:37:11;94172.91;;;11.99;100.00
51829;BME280;37881;48.024;8.774;2023-05-25T07:39:37;94181.38;;;12.75;100.00
51829;BME280;37881;48.024;8.774;2023-05-25T07:42:06;94174.97;;;13.02;100.00
51829;BME280;37881;48.024;8.774;2023-05-25T07:44:32;94180.56;;;12.78;100.00
51829;BME280;37881;48.024;8.774;2023-05-25T07:47:00;94185.81;;;12.49;100.00
51829;BME280;37881;48.024;8.774;2023-05-25T07:49:26;94180.25;;;13.33;100.00
51829;BME280;37881;48.024;8.774;2023-05-25T07:51:53;94189.03;;;12.88;100.00
51829;BME280;37881;48.024;8.774;2023-05-25T07:54:20;94194.81;;;13.13;100.00
51829;BME280;37881;48.024;8.774;2023-05-25T07:56:47;94198.97;;;12.62;100.00
51829;BME280;37881;48.024;8.774;2023-05-25T07:59:13;94196.03;;;12.92;100.00
51829;BME280;37881;48.024;8.774;2023-05-25T08:01:40;94199.91;;;13.15;100.00
51829;BME280;37881;48.024;8.774;2023-05-25T08:04:07;94201.78;;;12.58;100.00
51829;BME280;37881;48.024;8.774;2023-05-25T08:06:34;94203.84;;;12.07;100.00
51829;BME280;37881;48.024;8.774;2023-05-25T08:09:02;94196.19;;;12.18;100.00
51829;BME280;37881;48.024;8.774;2023-05-25T08:11:30;94194.50;;;13.28;100.00
51829;BME280;37881;48.024;8.774;2023-05-25T08:13:57;94203.38;;;12.99;100.00
51829;BME280;37881;48.024;8.774;2023-05-25T08:16:25;94204.78;;;13.64;100.00
51829;BME280;37881;48.024;8.774;2023-05-25T08:18:52;94201.47;;;13.16;100.00
51829;BME280;37881;48.024;8.774;2023-05-25T08:21:19;94200.09;;;13.97;100.00
51829;BME280;37881;48.024;8.774;2023-05-25T08:23:45;94204.84;;;14.13;100.00
51829;BME280;37881;48.024;8.774;2023-05-25T08:26:12;94202.94;;;14.10;100.00
51829;BME280;37881;48.024;8.774;2023-05-25T08:28:59;94205.97;;;14.15;100.00
51829;BME280;37881;48.024;8.774;2023-05-25T08:31:27;94199.06;;;14.07;100.00
51829;BME280;37881;48.024;8.774;2023-05-25T08:33:53;94211.38;;;14.35;100.00
51829;BME280;37881;48.024;8.774;2023-05-25T08:36:20;94214.31;;;13.95;100.00
51829;BME280;37881;48.024;8.774;2023-05-25T08:38:47;94220.28;;;14.60;100.00
51829;BME280;37881;48.024;8.774;2023-05-25T08:41:14;94220.16;;;14.80;100.00
51829;BME280;37881;48.024;8.774;2023-05-25T08:43:42;94215.28;;;14.22;100.00
51829;BME280;37881;48.024;8.774;2023-05-25T08:46:09;94233.06;;;13.31;100.00
51829;BME280;37881;48.024;8.774;2023-05-25T08:48:36;94229.47;;;13.34;100.00
51829;BME280;37881;48.024;8.774;2023-05-25T08:51:10;94228.97;;;14.42;100.00
51829;BME280;37881;48.024;8.774;2023-05-25T08:53:39;94233.03;;;13.51;100.00
51829;BME280;37881;48.024;8.774;2023-05-25T08:56:15;94234.44;;;14.29;100.00
51829;BME280;37881;48.024;8.774;2023-05-25T08:58:57;94233.63;;;14.12;100.00
51829;BME280;37881;48.024;8.774;2023-05-25T09:01:33;94242.38;;;15.05;100.00
51829;BME280;37881;48.024;8.774;2023-05-25T09:04:04;94244.25;;;14.46;100.00
51829;BME280;37881;48.024;8.774;2023-05-25T09:06:32;94238.03;;;13.93;100.00
51829;BME280;37881;48.024;8.774;2023-05-25T09:09:05;94243.41;;;14.33;100.00
51829;BME280;37881;48.024;8.774;2023-05-25T09:11:32;94237.44;;;14.51;100.00
51829;BME280;37881;48.024;8.774;2023-05-25T09:14:10;94230.44;;;14.63;100.00
51829;BME280;37881;48.024;8.774;2023-05-25T09:16:36;94234.44;;;15.20;100.00
51829;BME280;37881;48.024;8.774;2023-05-25T09:19:03;94245.59;;;15.16;100.00
51829;BME280;37881;48.024;8.774;2023-05-25T09:21:30;94243.69;;;14.84;100.00
51829;BME280;37881;48.024;8.774;2023-05-25T09:23:59;94263.06;;;14.68;100.00
51829;BME280;37881;48.024;8.774;2023-05-25T09:26:25;94262.34;;;15.26;100.00
51829;BME280;37881;48.024;8.774;2023-05-25T09:28:53;94271.41;;;14.97;100.00
51829;BME280;37881;48.024;8.774;2023-05-25T09:31:22;94267.44;;;15.27;100.00
51829;BME280;37881;48.024;8.774;2023-05-25T09:33:50;94270.50;;;15.58;100.00
51829;BME280;37881;48.024;8.774;2023-05-25T09:36:17;94275.81;;;14.94;100.00
51829;BME280;37881;48.024;8.774;2023-05-25T09:38:46;94279.44;;;14.42;100.00
51829;BME280;37881;48.024;8.774;2023-05-25T09:41:13;94286.94;;;14.91;100.00
51829;BME280;37881;48.024;8.774;2023-05-25T09:43:40;94283.28;;;15.10;100.00
51829;BME280;37881;48.024;8.774;2023-05-25T09:46:20;94276.38;;;15.61;100.00
51829;BME280;37881;48.024;8.774;2023-05-25T09:48:46;94284.66;;;15.90;99.96
51829;BME280;37881;48.024;8.774;2023-05-25T09:51:14;94280.19;;;16.56;95.38
51829;BME280;37881;48.024;8.774;2023-05-25T09:53:41;94283.16;;;15.72;99.44
51829;BME280;37881;48.024;8.774;2023-05-25T09:56:10;94287.19;;;15.97;97.44
51829;BME280;37881;48.024;8.774;2023-05-25T09:58:37;94290.94;;;15.48;100.00
51829;BME280;37881;48.024;8.774;2023-05-25T10:01:04;94292.22;;;17.01;92.89
51829;BME280;37881;48.024;8.774;2023-05-25T10:03:30;94286.25;;;16.77;93.23
51829;BME280;37881;48.024;8.774;2023-05-25T10:05:59;94292.22;;;18.43;84.80
51829;BME280;37881;48.024;8.774;2023-05-25T10:08:27;94287.31;;;20.31;75.17
51829;BME280;37881;48.024;8.774;2023-05-25T10:10:54;94284.25;;;20.96;69.15
51829;BME280;37881;48.024;8.774;2023-05-25T10:13:21;94288.97;;;18.44;78.37
51829;BME280;37881;48.024;8.774;2023-05-25T10:15:52;94299.66;;;19.69;73.12
51829;BME280;37881;48.024;8.774;2023-05-25T10:18:25;94288.06;;;19.99;71.75
51829;BME280;37881;48.024;8.774;2023-05-25T10:21:00;94288.66;;;22.49;63.86
51829;BME280;37881;48.024;8.774;2023-05-25T10:23:36;94284.06;;;20.75;64.79
51829;BME280;37881;48.024;8.774;2023-05-25T10:26:05;94285.56;;;20.86;67.87
51829;BME280;37881;48.024;8.774;2023-05-25T10:28:35;94287.69;;;21.78;63.89
51829;BME280;37881;48.024;8.774;2023-05-25T10:31:03;94283.13;;;19.10;71.74
51829;BME280;37881;48.024;8.774;2023-05-25T10:33:31;94284.97;;;19.69;72.88
51829;BME280;37881;48.024;8.774;2023-05-25T10:36:00;94284.19;;;17.38;82.25
51829;BME280;37881;48.024;8.774;2023-05-25T10:38:34;94289.66;;;18.17;81.02
51829;BME280;37881;48.024;8.774;2023-05-25T10:41:03;94288.63;;;18.33;79.86
51829;BME280;37881;48.024;8.774;2023-05-25T10:43:31;94277.00;;;18.75;76.73
51829;BME280;37881;48.024;8.774;2023-05-25T10:45:58;94293.91;;;18.09;77.35
51829;BME280;37881;48.024;8.774;2023-05-25T10:48:35;94282.63;;;18.84;78.71
51829;BME280;37881;48.024;8.774;2023-05-25T10:51:02;94280.81;;;19.55;75.21
51829;BME280;37881;48.024;8.774;2023-05-25T10:53:29;94287.22;;;18.28;80.32
51829;BME280;37881;48.024;8.774;2023-05-25T10:56:04;94299.66;;;18.55;77.87
51829;BME280;37881;48.024;8.774;2023-05-25T10:58:31;94286.06;;;18.98;77.58
51829;BME280;37881;48.024;8.774;2023-05-25T11:01:05;94291.81;;;18.63;79.32
51829;BME280;37881;48.024;8.774;2023-05-25T11:09:25;94275.22;;;19.92;73.27
51829;BME280;37881;48.024;8.774;2023-05-25T11:14:27;94279.53;;;18.82;78.78
51829;BME280;37881;48.024;8.774;2023-05-25T11:17:13;94286.13;;;18.66;79.18
51829;BME280;37881;48.024;8.774;2023-05-25T11:19:42;94293.50;;;19.19;77.47
51829;BME280;37881;48.024;8.774;2023-05-25T11:22:16;94295.03;;;18.61;79.54
51829;BME280;37881;48.024;8.774;2023-05-25T11:24:48;94298.31;;;18.69;78.61
51829;BME280;37881;48.024;8.774;2023-05-25T11:27:21;94298.00;;;18.58;79.44
51829;BME280;37881;48.024;8.774;2023-05-25T11:29:50;94293.06;;;17.90;85.16
51829;BME280;37881;48.024;8.774;2023-05-25T11:32:16;94300.31;;;17.30;87.44
51829;BME280;37881;48.024;8.774;2023-05-25T11:34:45;94285.56;;;17.55;87.37
51829;BME280;37881;48.024;8.774;2023-05-25T11:37:16;94301.47;;;18.40;81.89
51829;BME280;37881;48.024;8.774;2023-05-25T11:39:48;94296.56;;;19.03;79.33
51829;BME280;37881;48.024;8.774;2023-05-25T11:42:15;94293.13;;;20.09;75.14
51829;BME280;37881;48.024;8.774;2023-05-25T11:44:42;94289.41;;;18.83;76.25
51829;BME280;37881;48.024;8.774;2023-05-25T11:47:10;94296.97;;;18.02;83.06
51829;BME280;37881;48.024;8.774;2023-05-25T11:49:40;94286.25;;;16.90;88.58
51829;BME280;37881;48.024;8.774;2023-05-25T11:52:11;94288.66;;;18.02;85.90
51829;BME280;37881;48.024;8.774;2023-05-25T11:54:39;94282.53;;;17.41;85.05
51829;BME280;37881;48.024;8.774;2023-05-25T11:57:17;94298.72;;;18.49;82.74
51829;BME280;37881;48.024;8.774;2023-05-25T11:59:55;94299.44;;;17.77;86.75
51829;BME280;37881;48.024;8.774;2023-05-25T12:02:23;94293.75;;;17.81;86.26
51829;BME280;37881;48.024;8.774;2023-05-25T12:04:59;94296.47;;;17.94;86.33
51829;BME280;37881;48.024;8.774;2023-05-25T12:07:30;94297.09;;;17.76;86.96
51829;BME280;37881;48.024;8.774;2023-05-25T12:10:14;94298.97;;;18.32;84.09
51829;BME280;37881;48.024;8.774;2023-05-25T12:12:47;94299.53;;;18.18;84.61
51829;BME280;37881;48.024;8.774;2023-05-25T12:15:16;94284.41;;;18.19;85.06
51829;BME280;37881;48.024;8.774;2023-05-25T12:17:46;94277.75;;;19.34;81.21
51829;BME280;37881;48.024;8.774;2023-05-25T12:20:15;94278.38;;;19.48;77.74
51829;BME280;37881;48.024;8.774;2023-05-25T12:22:43;94276.50;;;19.45;77.93
51829;BME280;37881;48.024;8.774;2023-05-25T12:25:12;94283.75;;;19.33;78.06
51829;BME280;37881;48.024;8.774;2023-05-25T12:27:39;94278.50;;;18.98;79.02
51829;BME280;37881;48.024;8.774;2023-05-25T12:30:07;94287.28;;;18.38;81.84
51829;BME280;37881;48.024;8.774;2023-05-25T12:32:59;94280.19;;;19.23;79.62
51829;BME280;37881;48.024;8.774;2023-05-25T12:35:43;94289.03;;;19.22;76.81
51829;BME280;37881;48.024;8.774;2023-05-25T12:38:16;94276.34;;;19.02;81.05
51829;BME280;37881;48.024;8.774;2023-05-25T12:40:43;94279.41;;;17.83;86.90
51829;BME280;37881;48.024;8.774;2023-05-25T12:43:10;94282.66;;;18.44;84.84
51829;BME280;37881;48.024;8.774;2023-05-25T12:45:42;94280.94;;;19.05;82.23
51829;BME280;37881;48.024;8.774;2023-05-25T12:48:09;94276.78;;;19.19;81.97
51829;BME280;37881;48.024;8.774;2023-05-25T12:50:36;94275.56;;;19.66;79.34
51829;BME280;37881;48.024;8.774;2023-05-25T12:53:03;94285.44;;;17.59;87.27
51829;BME280;37881;48.024;8.774;2023-05-25T12:55:31;94278.56;;;18.76;85.73
51829;BME280;37881;48.024;8.774;2023-05-25T12:58:00;94274.03;;;19.10;84.56
51829;BME280;37881;48.024;8.774;2023-05-25T13:03:02;94291.16;;;19.64;77.42
51829;BME280;37881;48.024;8.774;2023-05-25T13:05:32;94280.34;;;19.75;76.30
51829;BME280;37881;48.024;8.774;2023-05-25T13:08:00;94285.22;;;20.17;76.51
51829;BME280;37881;48.024;8.774;2023-05-25T13:10:31;94290.63;;;20.63;73.57
51829;BME280;37881;48.024;8.774;2023-05-25T13:12:58;94289.31;;;19.61;77.98
51829;BME280;37881;48.024;8.774;2023-05-25T13:15:25;94294.78;;;18.68;82.12
51829;BME280;37881;48.024;8.774;2023-05-25T13:17:53;94294.44;;;19.34;79.64